createdAt,value
2023-03-10T00:00:12.587Z,47.58
2023-03-10T00:03:01.309Z,47.86
2023-03-10T00:05:50.036Z,47.85
2023-03-10T00:08:40.338Z,48.15
2023-03-10T00:11:29.090Z,47.85
2023-03-10T00:14:18.762Z,48.00
2023-03-10T00:17:07.493Z,47.97
2023-03-10T00:19:56.128Z,47.88
2023-03-10T00:22:44.696Z,47.79
2023-03-10T00:25:34.731Z,47.81
2023-03-10T00:28:23.634Z,48.10
2023-03-10T00:31:14.902Z,47.93
2023-03-10T00:34:03.580Z,48.04
2023-03-10T00:36:52.179Z,48.03
2023-03-10T00:39:40.859Z,48.02
2023-03-10T00:42:30.832Z,47.94
2023-03-10T00:45:19.604Z,48.01
2023-03-10T00:48:08.628Z,48.32
2023-03-10T00:50:57.287Z,48.28
2023-03-10T00:53:46.467Z,48.20
2023-03-10T00:56:35.132Z,48.35
2023-03-10T00:59:25.137Z,48.25
2023-03-10T01:02:13.729Z,48.22
2023-03-10T01:05:02.430Z,48.22
2023-03-10T01:07:51.042Z,48.23
2023-03-10T01:10:39.616Z,48.44
2023-03-10T01:13:28.523Z,47.99
2023-03-10T01:16:18.611Z,48.57
2023-03-10T01:19:07.565Z,48.16
2023-03-10T01:21:56.234Z,48.39
2023-03-10T01:24:44.808Z,48.41
2023-03-10T01:27:33.483Z,48.10
2023-03-10T01:30:22.440Z,48.63
2023-03-10T01:33:13.199Z,48.26
2023-03-10T01:36:01.878Z,48.30
2023-03-10T01:38:51.089Z,48.10
2023-03-10T01:41:40.421Z,48.42
2023-03-10T01:44:29.030Z,48.31
2023-03-10T01:47:17.656Z,48.11
2023-03-10T01:50:09.524Z,48.08
2023-03-10T01:52:58.543Z,48.39
2023-03-10T01:55:52.373Z,48.44
2023-03-10T01:58:42.886Z,48.23
2023-03-10T02:01:31.646Z,48.33
2023-03-10T02:04:24.444Z,48.34
2023-03-10T02:07:14.963Z,48.15
2023-03-10T02:10:04.088Z,48.13
2023-03-10T02:12:52.665Z,48.23
2023-03-10T02:15:41.565Z,48.16
2023-03-10T02:18:31.765Z,47.92
2023-03-10T02:21:27.631Z,48.19
2023-03-10T02:24:24.300Z,48.32
2023-03-10T02:27:17.631Z,47.91
2023-03-10T02:30:09.195Z,48.03
2023-03-10T02:33:00.813Z,48.53
2023-03-10T02:35:49.500Z,48.00
2023-03-10T02:38:38.162Z,48.07
2023-03-10T02:41:30.518Z,48.21
2023-03-10T02:44:22.447Z,48.64
2023-03-10T02:47:11.783Z,48.20
2023-03-10T02:50:00.365Z,48.24
2023-03-10T02:52:52.725Z,48.19
2023-03-10T02:55:41.582Z,48.19
2023-03-10T02:58:31.938Z,48.19
2023-03-10T03:01:22.430Z,48.31
2023-03-10T03:04:11.152Z,48.43
2023-03-10T03:06:59.871Z,48.23
2023-03-10T03:09:48.441Z,48.65
2023-03-10T03:12:37.047Z,48.21
2023-03-10T03:15:26.007Z,48.59
2023-03-10T03:18:16.034Z,48.53
2023-03-10T03:21:08.680Z,48.49
2023-03-10T03:23:57.257Z,48.55
2023-03-10T03:26:46.174Z,48.69
2023-03-10T03:29:35.108Z,48.23
2023-03-10T03:32:23.711Z,48.59
2023-03-10T03:35:16.177Z,48.54
2023-03-10T03:38:05.330Z,48.32
2023-03-10T03:40:53.898Z,48.60
2023-03-10T03:43:42.640Z,48.45
2023-03-10T03:46:31.245Z,48.53
2023-03-10T03:49:19.921Z,48.16
2023-03-10T03:52:10.132Z,48.75
2023-03-10T03:54:58.712Z,48.80
2023-03-10T03:57:47.741Z,48.25
2023-03-10T04:00:36.544Z,48.54
2023-03-10T04:03:25.303Z,48.56
2023-03-10T04:06:13.947Z,48.61
2023-03-10T04:09:03.977Z,48.65
2023-03-10T04:11:52.565Z,49.03
2023-03-10T04:14:41.168Z,48.90
2023-03-10T04:17:29.786Z,48.88
2023-03-10T04:20:18.567Z,48.68
2023-03-10T04:23:07.163Z,48.83
2023-03-10T04:25:57.468Z,48.67
2023-03-10T04:28:46.112Z,48.39
2023-03-10T04:31:34.853Z,48.62
2023-03-10T04:34:23.496Z,48.65
2023-03-10T04:37:12.131Z,48.56
2023-03-10T04:40:00.744Z,48.45
2023-03-10T04:42:50.830Z,48.37
2023-03-10T04:45:39.631Z,48.73
2023-03-10T04:48:28.285Z,48.64
2023-03-10T04:51:16.901Z,49.07
2023-03-10T04:54:05.600Z,48.41
2023-03-10T04:56:54.494Z,49.04
2023-03-10T04:59:44.615Z,48.61
2023-03-10T05:02:34.120Z,48.74
2023-03-10T05:05:22.747Z,48.99
2023-03-10T05:08:11.488Z,48.70
2023-03-10T05:11:00.141Z,48.62
2023-03-10T05:13:49.009Z,48.51
2023-03-10T05:16:39.037Z,48.31
2023-03-10T05:19:28.795Z,48.40
2023-03-10T05:22:17.567Z,48.72
2023-03-10T05:25:07.399Z,48.78
2023-03-10T05:27:56.039Z,48.44
2023-03-10T05:30:45.006Z,48.48
2023-03-10T05:33:35.034Z,48.96
2023-03-10T05:36:23.902Z,49.62
2023-03-10T05:39:13.125Z,49.40
2023-03-10T05:42:01.847Z,49.16
2023-03-10T05:44:50.550Z,49.09
2023-03-10T05:47:39.243Z,49.46
2023-03-10T05:50:29.401Z,49.10
2023-03-10T05:53:17.975Z,48.88
2023-03-10T05:56:07.991Z,48.34
2023-03-10T05:58:56.618Z,48.25
2023-03-10T06:01:45.297Z,48.02
2023-03-10T06:04:34.226Z,47.71
2023-03-10T06:07:24.219Z,47.37
2023-03-10T06:10:13.104Z,47.32
2023-03-10T06:13:01.782Z,47.23
2023-03-10T06:15:51.877Z,47.08
2023-03-10T06:18:40.595Z,47.11
2023-03-10T06:21:29.624Z,47.02
2023-03-10T06:24:19.715Z,47.12
2023-03-10T06:27:08.327Z,46.78
2023-03-10T06:29:56.914Z,46.56
2023-03-10T06:32:45.757Z,47.02
2023-03-10T06:35:34.923Z,46.74
2023-03-10T06:38:23.824Z,46.92
2023-03-10T06:41:14.323Z,46.67
2023-03-10T06:44:02.858Z,47.56
2023-03-10T06:46:51.508Z,47.39
2023-03-10T06:49:40.072Z,47.32
2023-03-10T06:52:28.766Z,46.50
2023-03-10T06:55:17.552Z,46.71
2023-03-10T06:58:07.582Z,46.57
2023-03-10T07:00:56.293Z,46.42
2023-03-10T07:03:47.206Z,46.15
2023-03-10T07:06:35.928Z,46.07
2023-03-10T07:09:24.652Z,45.85
2023-03-10T07:12:13.518Z,45.96
2023-03-10T07:15:03.879Z,45.60
2023-03-10T07:17:52.643Z,45.85
2023-03-10T07:20:42.233Z,45.47
2023-03-10T07:23:30.994Z,45.57
2023-03-10T07:26:19.984Z,45.05
2023-03-10T07:29:08.970Z,45.20
2023-03-10T07:31:59.234Z,45.28
2023-03-10T07:34:47.817Z,45.48
2023-03-10T07:37:39.812Z,45.21
2023-03-10T07:40:29.128Z,45.44
2023-03-10T07:43:17.844Z,45.10
2023-03-10T07:46:07.906Z,45.29
2023-03-10T07:49:00.643Z,45.17
2023-03-10T07:51:49.186Z,44.88
2023-03-10T07:54:37.880Z,45.13
2023-03-10T07:57:26.520Z,44.97
2023-03-10T08:00:16.540Z,44.55
2023-03-10T08:03:05.314Z,44.40
2023-03-10T08:05:55.667Z,44.69
2023-03-10T08:08:44.264Z,44.41
2023-03-10T08:11:32.980Z,44.86
2023-03-10T08:14:24.037Z,44.94
2023-03-10T08:17:12.662Z,44.93
2023-03-10T08:20:01.498Z,44.89
2023-03-10T08:22:51.627Z,44.88
2023-03-10T08:25:40.433Z,44.72
2023-03-10T08:28:30.621Z,44.57
2023-03-10T08:31:21.341Z,44.26
2023-03-10T08:34:10.193Z,44.82
2023-03-10T08:37:00.716Z,44.81
2023-03-10T08:39:53.906Z,44.45
2023-03-10T08:42:42.696Z,44.43
2023-03-10T08:45:36.584Z,44.28
2023-03-10T08:48:25.415Z,44.75
2023-03-10T08:51:16.116Z,44.19
2023-03-10T08:54:05.630Z,44.29
2023-03-10T08:56:55.876Z,43.97
2023-03-10T08:59:44.816Z,43.97
2023-03-10T09:02:33.745Z,44.05
2023-03-10T09:05:22.691Z,43.90
2023-03-10T09:08:11.407Z,43.82
2023-03-10T09:11:00.312Z,44.27
2023-03-10T09:13:50.466Z,43.64
2023-03-10T09:16:40.306Z,43.61
2023-03-10T09:19:29.330Z,43.55
2023-03-10T09:22:17.988Z,43.86
2023-03-10T09:25:07.509Z,43.98
2023-03-10T09:27:56.191Z,43.62
2023-03-10T09:30:46.292Z,43.34
2023-03-10T09:33:35.399Z,43.21
2023-03-10T09:36:24.030Z,43.53
2023-03-10T09:39:13.027Z,43.33
2023-03-10T09:42:36.938Z,43.50
2023-03-10T09:45:34.348Z,43.24
2023-03-10T09:48:41.368Z,43.45
2023-03-10T09:51:30.497Z,43.44
2023-03-10T09:54:39.541Z,44.06
2023-03-10T09:57:31.534Z,44.13
2023-03-10T10:00:24.138Z,44.04
2023-03-10T10:03:18.793Z,44.09
2023-03-10T10:06:09.502Z,44.48
2023-03-10T10:09:04.912Z,43.95
2023-03-10T10:11:54.134Z,43.94
2023-03-10T10:14:55.030Z,43.37
2023-03-10T10:18:05.265Z,43.36
2023-03-10T10:21:01.746Z,43.29
2023-03-10T10:23:54.384Z,43.59
2023-03-10T10:26:43.043Z,39.95
2023-03-10T10:29:36.497Z,36.57
2023-03-10T10:32:25.588Z,38.38
2023-03-10T10:35:16.390Z,40.09
2023-03-10T10:38:07.307Z,41.18
2023-03-10T10:41:04.596Z,41.25
2023-03-10T10:43:58.314Z,41.42
2023-03-10T10:46:53.399Z,41.93
2023-03-10T10:49:42.019Z,41.82
2023-03-10T10:52:30.799Z,41.96
2023-03-10T10:55:30.352Z,42.07
2023-03-10T10:58:29.676Z,42.18
2023-03-10T11:01:18.437Z,41.97
2023-03-10T11:04:08.897Z,42.86
2023-03-10T11:07:12.526Z,43.48
2023-03-10T11:10:01.574Z,43.57
2023-03-10T11:12:58.687Z,43.26
2023-03-10T11:15:54.311Z,43.39
2023-03-10T11:18:50.533Z,43.69
2023-03-10T11:21:45.358Z,44.52
2023-03-10T11:24:38.014Z,44.42
2023-03-10T11:27:37.416Z,44.63
2023-03-10T11:30:29.766Z,44.54
2023-03-10T11:33:25.748Z,43.86
2023-03-10T11:36:21.213Z,44.10
2023-03-10T11:39:14.653Z,43.86
2023-03-10T11:42:07.174Z,43.78
2023-03-10T11:45:04.188Z,43.82
2023-03-10T11:47:58.530Z,43.65
2023-03-10T11:50:52.835Z,43.69
2023-03-10T11:53:44.439Z,43.83
2023-03-10T11:56:33.698Z,44.03
2023-03-10T11:59:24.219Z,44.03
2023-03-10T12:02:17.510Z,43.79
2023-03-10T12:05:12.210Z,43.83
2023-03-10T12:08:05.377Z,43.66
2023-03-10T12:10:55.434Z,44.13
2023-03-10T12:13:45.988Z,44.25
2023-03-10T12:16:38.198Z,43.82
2023-03-10T12:19:26.846Z,44.01
2023-03-10T12:22:26.132Z,43.94
2023-03-10T12:25:50.144Z,43.75
2023-03-10T12:28:38.744Z,43.72
2023-03-10T12:31:48.184Z,43.35
2023-03-10T12:34:36.885Z,43.70
2023-03-10T12:37:25.495Z,43.18
2023-03-10T12:40:47.365Z,43.15
2023-03-10T12:43:56.970Z,42.94
2023-03-10T12:46:47.954Z,43.48
2023-03-10T12:49:39.418Z,43.58
2023-03-10T12:52:37.655Z,43.59
2023-03-10T12:55:27.916Z,43.32
2023-03-10T12:58:19.822Z,43.84
2023-03-10T13:01:13.747Z,43.49
2023-03-10T13:04:07.106Z,43.82
2023-03-10T13:07:03.492Z,43.52
2023-03-10T13:09:52.710Z,43.67
2023-03-10T13:12:48.637Z,43.56
2023-03-10T13:15:37.591Z,43.75
2023-03-10T13:18:27.653Z,43.67
2023-03-10T13:21:25.958Z,43.64
2023-03-10T13:24:26.805Z,44.07
2023-03-10T13:27:17.124Z,43.78
2023-03-10T13:30:12.529Z,43.73
2023-03-10T13:33:02.555Z,43.80
2023-03-10T13:35:52.572Z,43.27
2023-03-10T13:38:43.860Z,43.70
2023-03-10T13:41:37.369Z,43.54
2023-03-10T13:44:28.220Z,43.55
2023-03-10T13:47:19.397Z,43.71
2023-03-10T13:50:15.606Z,43.14
2023-03-10T13:53:05.533Z,43.27
2023-03-10T13:55:54.387Z,43.51
2023-03-10T13:58:43.739Z,43.48
2023-03-10T14:01:34.604Z,43.28
2023-03-10T14:04:42.110Z,43.08
2023-03-10T14:07:32.992Z,43.62
2023-03-10T14:10:23.347Z,43.90
2023-03-10T14:13:41.761Z,43.34
2023-03-10T14:16:49.857Z,43.44
2023-03-10T14:19:50.268Z,43.21
2023-03-10T14:22:41.366Z,43.11
2023-03-10T14:25:31.594Z,43.12
2023-03-10T14:28:24.096Z,43.41
2023-03-10T14:31:23.900Z,42.14
2023-03-10T14:34:14.368Z,42.52
2023-03-10T14:37:03.001Z,43.02
2023-03-10T14:39:51.623Z,43.25
2023-03-10T14:42:42.576Z,43.18
2023-03-10T14:45:32.890Z,43.57
2023-03-10T14:48:22.829Z,43.50
2023-03-10T14:51:25.670Z,44.01
2023-03-10T14:54:23.361Z,43.78
2023-03-10T14:57:13.012Z,44.29
2023-03-10T15:00:04.268Z,43.90
2023-03-10T15:02:52.942Z,43.96
2023-03-10T15:05:48.663Z,43.90
2023-03-10T15:08:37.957Z,43.72
2023-03-10T15:11:37.128Z,43.99
2023-03-10T15:14:26.353Z,44.50
2023-03-10T15:17:16.387Z,44.82
2023-03-10T15:20:08.415Z,44.70
2023-03-10T15:22:56.986Z,45.26
2023-03-10T15:25:46.431Z,45.09
2023-03-10T15:28:36.363Z,45.01
2023-03-10T15:31:25.983Z,45.10
2023-03-10T15:34:16.093Z,44.93
2023-03-10T15:37:07.331Z,44.71
2023-03-10T15:39:56.008Z,44.15
2023-03-10T15:42:45.101Z,44.42
2023-03-10T15:45:34.113Z,44.10
2023-03-10T15:48:22.748Z,44.03
2023-03-10T15:51:17.445Z,44.03
2023-03-10T15:54:06.121Z,44.37
2023-03-10T15:56:54.783Z,44.54
2023-03-10T15:59:43.858Z,44.50
2023-03-10T16:02:32.652Z,45.15
2023-03-10T16:05:21.718Z,44.99
2023-03-10T16:08:11.871Z,45.44
2023-03-10T16:11:00.526Z,45.38
2023-03-10T16:13:50.230Z,44.99
2023-03-10T16:16:38.863Z,46.39
2023-03-10T16:19:28.193Z,46.83
2023-03-10T16:22:16.841Z,46.31
2023-03-10T16:25:08.930Z,46.65
2023-03-10T16:27:57.644Z,46.68
2023-03-10T16:30:49.796Z,46.38
2023-03-10T16:33:38.528Z,46.42
2023-03-10T16:36:29.648Z,46.82
2023-03-10T16:39:18.318Z,46.93
2023-03-10T16:42:08.810Z,47.46
2023-03-10T16:44:58.072Z,46.94
2023-03-10T16:47:47.387Z,47.35
2023-03-10T16:50:36.087Z,47.76
2023-03-10T16:53:24.738Z,48.20
2023-03-10T16:56:13.548Z,47.67
2023-03-10T16:59:03.542Z,48.35
2023-03-10T17:01:52.838Z,48.08
2023-03-10T17:04:41.360Z,48.34
2023-03-10T17:07:30.186Z,48.35
2023-03-10T17:10:19.104Z,47.93
2023-03-10T17:13:07.716Z,48.20
2023-03-10T17:15:57.997Z,48.40
2023-03-10T17:18:46.769Z,48.29
2023-03-10T17:21:40.372Z,48.57
2023-03-10T17:24:29.564Z,48.51
2023-03-10T17:27:18.248Z,48.68
2023-03-10T17:30:08.230Z,48.47
2023-03-10T17:32:58.384Z,48.98
2023-03-10T17:35:47.276Z,48.94
2023-03-10T17:38:36.298Z,48.77
2023-03-10T17:41:25.048Z,48.44
2023-03-10T17:44:13.996Z,48.77
2023-03-10T17:47:02.765Z,48.51
2023-03-10T17:49:55.101Z,48.64
2023-03-10T17:52:43.729Z,48.40
2023-03-10T17:55:32.571Z,48.77
2023-03-10T17:58:21.936Z,48.76
2023-03-10T18:01:11.901Z,48.75
2023-03-10T18:04:01.786Z,48.71
2023-03-10T18:06:52.230Z,48.87
2023-03-10T18:09:41.046Z,48.80
2023-03-10T18:12:30.021Z,49.21
2023-03-10T18:15:19.023Z,48.62
2023-03-10T18:18:07.678Z,48.96
2023-03-10T18:20:56.257Z,48.77
2023-03-10T18:23:47.124Z,49.44
2023-03-10T18:26:36.685Z,49.85
2023-03-10T18:29:25.506Z,50.24
2023-03-10T18:32:14.211Z,49.91
2023-03-10T18:35:02.945Z,50.24
2023-03-10T18:37:51.669Z,49.03
2023-03-10T18:40:41.786Z,48.32
2023-03-10T18:43:32.211Z,49.47
2023-03-10T18:46:21.240Z,50.11
2023-03-10T18:49:10.336Z,50.14
2023-03-10T18:51:59.076Z,50.06
2023-03-10T18:54:48.670Z,50.34
2023-03-10T18:57:38.821Z,50.51
2023-03-10T19:00:27.886Z,50.75
2023-03-10T19:03:16.508Z,50.45
2023-03-10T19:06:05.575Z,49.80
2023-03-10T19:08:54.182Z,49.54
2023-03-10T19:11:42.778Z,49.68
2023-03-10T19:14:34.868Z,49.88
2023-03-10T19:17:26.410Z,49.66
2023-03-10T19:20:16.907Z,50.11
2023-03-10T19:23:05.561Z,49.92
2023-03-10T19:25:54.196Z,49.80
2023-03-10T19:28:43.041Z,49.01
2023-03-10T19:31:33.259Z,48.63
2023-03-10T19:34:21.927Z,48.38
2023-03-10T19:37:10.708Z,48.78
2023-03-10T19:40:01.681Z,48.44
2023-03-10T19:42:50.337Z,48.53
2023-03-10T19:45:39.054Z,48.63
2023-03-10T19:48:29.192Z,48.52
2023-03-10T19:51:22.170Z,48.33
2023-03-10T19:54:10.759Z,48.12
2023-03-10T19:56:59.360Z,48.74
2023-03-10T19:59:47.970Z,48.57
2023-03-10T20:02:36.730Z,48.22
2023-03-10T20:05:27.197Z,48.21
2023-03-10T20:08:15.893Z,48.12
2023-03-10T20:11:04.708Z,48.09
2023-03-10T20:13:54.953Z,48.93
2023-03-10T20:16:43.780Z,48.38
2023-03-10T20:19:32.499Z,48.62
2023-03-10T20:22:23.503Z,49.02
2023-03-10T20:25:14.404Z,48.49
2023-03-10T20:28:02.919Z,48.21
2023-03-10T20:30:51.554Z,48.16
2023-03-10T20:33:40.323Z,47.95
2023-03-10T20:36:29.060Z,48.13
2023-03-10T20:39:19.125Z,47.88
2023-03-10T20:42:09.370Z,48.51
2023-03-10T20:44:58.221Z,48.42
2023-03-10T20:47:47.987Z,48.18
2023-03-10T20:50:37.568Z,47.94
2023-03-10T20:53:26.434Z,47.89
2023-03-10T20:56:16.574Z,48.12
2023-03-10T20:59:05.284Z,47.89
2023-03-10T21:01:54.401Z,48.06
2023-03-10T21:04:43.170Z,48.09
2023-03-10T21:07:35.878Z,48.03
2023-03-10T21:10:26.056Z,47.96
2023-03-10T21:13:16.035Z,47.96
2023-03-10T21:16:04.792Z,47.96
2023-03-10T21:18:53.342Z,47.78
2023-03-10T21:21:42.095Z,48.30
2023-03-10T21:24:30.752Z,48.43
2023-03-10T21:27:20.882Z,47.84
2023-03-10T21:30:13.841Z,49.08
2023-03-10T21:33:02.580Z,50.00
2023-03-10T21:35:51.269Z,49.22
2023-03-10T21:38:39.863Z,48.80
2023-03-10T21:41:30.644Z,48.25
2023-03-10T21:44:19.279Z,48.09
2023-03-10T21:47:09.229Z,48.17
2023-03-10T21:49:58.093Z,48.04
2023-03-10T21:52:47.584Z,48.08
2023-03-10T21:55:38.223Z,47.96
2023-03-10T22:18:24.998Z,50.40
2023-03-10T22:40:36.770Z,50.62
2023-03-10T22:43:26.878Z,50.69
2023-03-10T22:46:17.115Z,50.47
2023-03-10T22:49:06.144Z,50.43
2023-03-10T22:51:54.813Z,50.53
2023-03-10T22:54:43.554Z,50.64
2023-03-10T22:57:32.221Z,50.25
2023-03-10T23:00:23.279Z,50.46
2023-03-10T23:03:13.944Z,50.35
2023-03-10T23:06:05.279Z,50.05
2023-03-10T23:08:53.858Z,49.99
2023-03-10T23:11:42.655Z,50.62
2023-03-10T23:14:31.299Z,50.27
2023-03-10T23:17:21.345Z,50.51
2023-03-10T23:20:13.947Z,50.41
2023-03-10T23:23:03.762Z,50.71
2023-03-10T23:25:52.584Z,50.87
2023-03-10T23:28:41.258Z,50.79
2023-03-10T23:31:30.001Z,51.20
2023-03-10T23:34:20.520Z,51.24
2023-03-10T23:37:09.155Z,51.07
2023-03-10T23:39:57.809Z,50.84
2023-03-10T23:42:47.162Z,51.14
2023-03-10T23:45:38.194Z,51.08
2023-03-10T23:48:27.211Z,50.94
2023-03-10T23:51:18.553Z,50.78
2023-03-10T23:54:07.321Z,50.77
2023-03-10T23:56:55.975Z,50.68
2023-03-10T23:59:44.674Z,50.79
